MUCU/SCU METAR and TAF weather

Enter ICAO airport designator
Station Type Date Time Source
MUCU METAR 2020/04/07 15:51 UTC NOAA

MUCU 071551Z 19008KT 9000 FEW020 29/22 Q1018


Station Type Date Time Source
MUCU Decoded METAR 2020/04/07 15:51 UTC NOAA

Santiago De Cuba, Oriente, Cuba (MUCU) 19-58N 075-51W 55M
Apr 07, 2020 - 11:51 AM EDT / 2020.04.07 1551 UTC
Wind: from the S (190 degrees) at 9 MPH (8 KT):0
Visibility: 5 mile(s):0
Sky conditions: mostly clear
Temperature: 84 F (29 C)
Dew Point: 71 F (22 C)
Relative Humidity: 65%
Pressure (altimeter): 30.06 in. Hg (1018 hPa)
ob: MUCU 071551Z 19008KT 9000 FEW020 29/22 Q1018
cycle: 16

Station Type Date Time Source
MUCU TAF 2020/04/07 12:03 UTC NOAA

TAF TAF MUCU 071100Z 0712/0812 36005KT 9000 SCT020
BECMG 0715/0717 18008KT
BECMG 0801/0803 36005KT

Example: see airport list